Rancho Heights (217) Station Data

Red Flag Warning: No
Fire Weather Zone: 250
SDGE Region: North East
Lat/Lon: 33.42/-117.06

Observations

Time Wind Speed/Gust Temp(F) RH Fuel Moist Fuel Temp(F) Dewpt(F) Tmax(F) Tmin(F) Accum Precip 10-min Precip SL Press(mb)
6/27 4:50pm 203 7 G 12 89° 17% - - 38° 92.2° 78.3° - - -
6/27 4:40pm 201 7 G 12 89° 15% - - 35° 92.2° 78.3° - - -
6/27 4:30pm 207 7 G 13 89° 16% - - 37° 92.2° 78.3° - - -
6/27 4:20pm 208 8 G 14 88° 16% - - 37° 92.2° 78.3° - - -
6/27 4:10pm 216 8 G 13 88° 18% - - 39° 92.2° 78.3° - - -
6/27 4:00pm 212 9 G 15 88° 18% - - 39° 92.2° 78.3° - - -
6/27 3:50pm 209 8 G 13 89° 16% - - 37° 92.2° 78.3° - - -
6/27 3:40pm 194 9 G 15 89° 11% - - 28° 92.2° 78.3° - - -
6/27 3:30pm 181 10 G 16 88° 14% - - 33° 92.2° 78.3° - - -
6/27 3:20pm 195 9 G 14 89° 14% - - 34° 92.2° 78.3° - - -
6/27 3:10pm 176 9 G 14 89° 13% - - 32° 92.2° 78.3° - - -
6/27 3:00pm 188 9 G 15 89° 15% - - 35° 92.2° 78.3° - - -
6/27 2:50pm 181 10 G 14 88° 17% - - 37° 92.2° 78.3° - - -
6/27 2:40pm 178 10 G 16 88° 16% - - 37° 92.2° 78.3° - - -
6/27 2:30pm 199 8 G 14 91° 14% - - 34° 92.2° 78.3° - - -
6/27 2:20pm 208 8 G 14 90° 14% - - 35° 92.2° 78.3° - - -
6/27 2:10pm 208 8 G 12 90° 13% - - 34° 92.2° 78.3° - - -
6/27 2:00pm 207 8 G 15 91° 13% - - 34° 92.2° 78.3° - - -
6/27 1:50pm 207 8 G 13 90° 13% - - 32° 92.2° 78.3° - - -
6/27 1:40pm 213 8 G 14 90° 12% - - 32° 92.2° 78.3° - - -
6/27 1:30pm 214 8 G 13 90° 14% - - 34° 92.2° 78.3° - - -
6/27 1:20pm 208 9 G 13 90° 15% - - 35° 92.2° 78.3° - - -
6/27 1:10pm 208 10 G 16 90° 16% - - 38° 92.2° 78.3° - - -
6/27 1:00pm 212 8 G 14 91° 15% - - 37° 92.2° 78.3° - - -
6/27 12:50pm 208 9 G 16 91° 14% - - 34° 92.2° 78.3° - - -
6/27 12:40pm 214 7 G 12 91° 12% - - 31° 92.2° 78.3° - - -
6/27 12:30pm 218 6 G 10 91° 10% - - 28° 92.2° 78.3° - - -
6/27 12:20pm 204 6 G 11 91° 10% - - 26° 92.1° 78.3° - - -
6/27 12:10pm 208 7 G 13 91° 10% - - 26° 92.1° 78.3° - - -
6/27 12:00pm 221 6 G 12 90° 9% - - 25° 92.1° 78.3° - - -
6/27 11:50am 209 6 G 11 91° 10% - - 27° 92.1° 78.3° - - -
6/27 11:40am 182 6 G 11 90° 10% - - 27° 91.5° 78.3° - - -
6/27 11:30am 198 6 G 11 90° 11% - - 28° 91.1° 78.3° - - -
6/27 11:20am 181 6 G 11 89° 11% - - 28° 90.5° 78.3° - - -
6/27 11:10am 181 5 G 9 89° 11% - - 27° 90.1° 78.3° - - -
6/27 11:00am 193 5 G 10 88° 11% - - 27° 90° 78.3° - - -
6/27 10:50am 184 5 G 10 87° 12% - - 28° 87.7° 78.3° - - -
6/27 10:40am 180 6 G 10 86° 12% - - 28° 87.7° 78.3° - - -
6/27 10:30am 172 5 G 9 87° 12% - - 28° 87.7° 78.3° - - -
6/27 10:20am 167 5 G 9 86° 12% - - 27° 86.8° 78.3° - - -
6/27 10:10am 172 6 G 10 85° 12% - - 26° 86.3° 78.3° - - -
6/27 10:00am 163 5 G 8 85° 11% - - 24° 86.3° 78.3° - - -
6/27 9:50am 166 5 G 9 85° 11% - - 25° 86.3° 78.3° - - -
6/27 9:40am 164 5 G 9 85° 11% - - 25° 86.3° 78.3° - - -
6/27 9:30am 168 5 G 9 85° 12% - - 26° 86.3° 78.3° - - -
6/27 9:20am 152 4 G 8 85° 12% - - 27° 86.3° 78.3° - - -
6/27 9:10am 141 3 G 8 85° 12% - - 27° 86.2° 78.3° - - -
6/27 9:00am 134 4 G 8 84° 12% - - 26° 85.1° 78.3° - - -
6/27 8:50am 127 4 G 8 84° 13% - - 27° 84.8° 78.3° - - -
6/27 8:40am 133 5 G 8 83° 12% - - 26° 84.1° 78.3° - - -
6/27 8:30am 139 5 G 9 83° 13% - - 28° 84.1° 78.3° - - -
6/27 8:20am 140 5 G 7 83° 13% - - 26° 84.1° 78.3° - - -
6/27 8:10am 139 5 G 8 83° 12% - - 25° 84.1° 78.3° - - -
6/27 8:00am 136 5 G 7 82° 12% - - 25° 84.1° 78.3° - - -
6/27 7:50am 138 5 G 8 82° 12% - - 24° 84.1° 78.3° - - -
6/27 7:40am 141 5 G 8 82° 12% - - 24° 84.1° 78.3° - - -
6/27 7:30am 142 5 G 8 82° 12% - - 25° 84.1° 78.3° - - -
6/27 7:20am 119 5 G 8 82° 12% - - 25° 84.1° 78.3° - - -
6/27 7:10am 126 5 G 8 82° 12% - - 24° 84.1° 78.3° - - -
6/27 7:00am 123 6 G 8 81° 12% - - 24° 84.1° 78.3° - - -
6/27 6:50am 133 6 G 8 80° 12% - - 23° 84.1° 78.3° - - -
6/27 6:40am 136 6 G 7 80° 12% - - 23° 84.1° 78.3° - - -
6/27 6:30am 137 6 G 7 80° 12% - - 23° 84.1° 78.3° - - -
6/27 6:20am 123 5 G 7 80° 12% - - 23° 84.1° 78.3° - - -
6/27 6:10am 121 6 G 9 80° 12% - - 23° 84.1° 78.6° - - -
6/27 6:00am 120 7 G 9 80° 13% - - 24° 84.1° 79° - - -
6/27 5:50am 121 7 G 8 80° 13% - - 24° 84.1° 79.4° - - -
6/27 5:40am 123 6 G 7 80° 13% - - 24° 84.1° 79.4° - - -
6/27 5:30am 125 6 G 7 80° 12% - - 23° 84.1° 79.5° - - -
6/27 5:20am 122 6 G 7 80° 12% - - 22° 84.1° 79.5° - - -
6/27 5:10am 146 5 G 7 80° 12% - - 24° 84.1° 79.6° - - -
6/27 5:00am 151 7 G 9 80° 12% - - 24° 84.1° 79.6° - - -
6/27 4:50am 152 7 G 8 81° 12% - - 24° 84.1° 79.7° - - -
6/27 4:40am 151 6 G 7 80° 12% - - 23° 84.1° 79.7° - - -
6/27 4:30am 141 6 G 8 81° 12% - - 22° 84.1° 80° - - -
6/27 4:20am 156 7 G 8 81° 11% - - 23° 84.1° 81° - - -
6/27 4:10am 149 5 G 8 82° 11% - - 22° 84.1° 81.1° - - -
6/27 4:00am 144 5 G 6 82° 11% - - 22° 84.1° 81.2° - - -
6/27 3:50am 147 5 G 7 82° 11% - - 23° 84.1° 81.2° - - -
6/27 3:40am 136 5 G 7 83° 11% - - 23° 84.1° 81.2° - - -
6/27 3:30am 126 5 G 7 83° 11% - - 22° 84.1° 81.2° - - -
6/27 3:20am 133 5 G 6 83° 11% - - 23° 84.1° 81.2° - - -
6/27 3:10am 129 5 G 6 83° 11% - - 23° 84.1° 81.2° - - -
6/27 3:00am 129 5 G 6 83° 11% - - 23° 84.1° 81.2° - - -
6/27 2:50am 127 5 G 6 83° 11% - - 22° 84.1° 81.2° - - -
6/27 2:40am 125 5 G 6 83° 11% - - 22° 84.1° 81.2° - - -
6/27 2:30am 127 5 G 6 83° 11% - - 23° 84.1° 81.2° - - -
6/27 2:20am 137 5 G 7 83° 11% - - 23° 84.1° 81.2° - - -
6/27 2:10am 136 5 G 7 83° 11% - - 23° 84.1° 81.2° - - -
6/27 2:00am 136 6 G 7 83° 11% - - 23° 84.1° 81.2° - - -
6/27 1:50am 136 5 G 8 83° 11% - - 24° 84.1° 81.2° - - -
6/27 1:40am 142 5 G 6 82° 12% - - 24° 84.1° 81.2° - - -
6/27 1:30am 139 6 G 7 82° 13% - - 26° 84.1° 81.2° - - -
6/27 1:20am 139 6 G 7 82° 14% - - 28° 84.1° 81.7° - - -
6/27 1:10am 115 3 G 6 83° 10% - - 21° 84.1° 81.7° - - -
6/27 1:00am 125 2 G 3 83° 10% - - 22° 84.1° 81.7° - - -
6/27 12:50am 179 3 G 4 83° 11% - - 22° 84.1° 81.7° - - -
6/27 12:40am 195 1 G 4 83° 11% - - 23° 84.1° 81.7° - - -
6/27 12:30am 183 2 G 4 83° 11% - - 22° 84° 81.7° - - -
6/27 12:20am 349 1 G 2 82° 11% - - 22° 83.8° 81.8° - - -
6/27 12:10am 312 1 G 3 83° 10% - - 22° 83.8° 82.8° - - -
6/27 12:00am 205 1 G 2 84° 10% - - 21° 97.3° 81.8° - - -
6/26 11:50pm 192 1 G 2 83° 10% - - 20° 97.3° 81.8° - - -
6/26 11:40pm 203 2 G 3 84° 9% - - 20° 97.3° 81.8° - - -
6/26 11:30pm 261 1 G 2 85° 9% - - 19° 97.3° 81.8° - - -
6/26 11:20pm 293 2 G 5 84° 9% - - 19° 97.3° 81.8° - - -
6/26 11:10pm 225 0 G 2 84° 10% - - 21° 97.3° 81.8° - - -
6/26 11:00pm 104 3 G 4 85° 10% - - 22° 97.3° 81.8° - - -
6/26 10:50pm 117 3 G 4 85° 11% - - 24° 97.3° 81.8° - - -
6/26 10:40pm 149 4 G 5 85° 11% - - 25° 97.3° 81.8° - - -
6/26 10:30pm 186 4 G 6 84° 12% - - 25° 97.3° 81.8° - - -
6/26 10:20pm 194 3 G 5 85° 11% - - 24° 97.3° 81.8° - - -
6/26 10:10pm 200 3 G 6 84° 13% - - 27° 97.3° 81.8° - - -
6/26 10:00pm 196 4 G 7 84° 13% - - 28° 97.3° 81.8° - - -
6/26 9:50pm 188 3 G 6 85° 14% - - 29° 97.3° 81.8° - - -
6/26 9:40pm 180 3 G 7 85° 13% - - 29° 97.3° 81.8° - - -
6/26 9:30pm 171 4 G 9 85° 15% - - 32° 97.3° 81.8° - - -
6/26 9:20pm 164 4 G 8 85° 16% - - 33° 97.3° 81.8° - - -
6/26 9:10pm 170 5 G 10 85° 16% - - 34° 97.3° 81.8° - - -
6/26 9:00pm 202 7 G 14 84° 18% - - 36° 97.3° 81.8° - - -
6/26 8:50pm 188 5 G 9 85° 16% - - 34° 97.3° 81.8° - - -
6/26 8:40pm 183 4 G 7 86° 16% - - 35° 97.3° 81.8° - - -
6/26 8:30pm 181 5 G 9 86° 17% - - 35° 97.3° 81.8° - - -
6/26 8:20pm 165 5 G 8 85° 18% - - 37° 97.3° 81.8° - - -
6/26 8:10pm 148 4 G 7 86° 17% - - 36° 97.3° 81.8° - - -
6/26 8:00pm 154 3 G 7 87° 16% - - 35° 97.3° 81.8° - - -
6/26 7:50pm 147 4 G 9 86° 18% - - 38° 97.3° 81.8° - - -
6/26 7:40pm 126 4 G 7 87° 19% - - 39° 97.3° 81.8° - - -
6/26 7:30pm 131 5 G 10 86° 19% - - 39° 97.3° 81.8° - - -
6/26 7:20pm 121 5 G 9 86° 21% - - 42° 97.3° 81.8° - - -
6/26 7:10pm 125 5 G 10 87° 20% - - 42° 97.3° 81.8° - - -
6/26 7:00pm 136 5 G 10 88° 19% - - 40° 97.3° 81.8° - - -
6/26 6:50pm 122 5 G 9 89° 18% - - 39° 97.3° 81.8° - - -
6/26 6:40pm 146 6 G 12 89° 17% - - 38° 97.3° 81.8° - - -
6/26 6:30pm 142 5 G 9 88° 21% - - 43° 97.3° 81.8° - - -
6/26 6:20pm 121 6 G 9 89° 19% - - 41° 97.3° 81.8° - - -
6/26 6:10pm 127 5 G 9 89° 20% - - 42° 97.3° 81.8° - - -
6/26 6:00pm 139 5 G 9 89° 21% - - 44° 97.3° 81.8° - - -
6/26 5:50pm 151 5 G 9 90° 21% - - 44° 97.3° 81.8° - - -
6/26 5:40pm 165 7 G 10 91° 21% - - 45° 97.3° 81.8° - - -
6/26 5:30pm 178 6 G 9 92° 21% - - 46° 97.3° 81.8° - - -
6/26 5:20pm 154 5 G 8 92° 21% - - 47° 97.3° 81.8° - - -
6/26 5:10pm 148 4 G 7 92° 22% - - 48° 97.3° 81.8° - - -
6/26 5:00pm 156 4 G 10 93° 22% - - 49° 97.3° 81.8° - - -
6/26 4:50pm 167 5 G 9 93° 23% - - 49° 97.3° 81.8° - - -
6/26 4:40pm 188 5 G 13 93° 23% - - 49° 97.3° 81.8° - - -
6/26 4:30pm 190 5 G 8 94° 22% - - 49° 97.3° 81.8° - - -
6/26 4:20pm 199 5 G 14 94° 21% - - 48° 97.3° 81.8° - - -
6/26 4:10pm 201 6 G 10 95° 18% - - 45° 97.3° 81.8° - - -
6/26 4:00pm 210 5 G 12 95° 17% - - 43° 97.3° 81.8° - - -
6/26 3:50pm 190 5 G 10 94° 19% - - 46° 97.3° 81.8° - - -
6/26 3:40pm 198 5 G 9 94° 21% - - 48° 97.3° 81.8° - - -
6/26 3:30pm 187 5 G 10 94° 22% - - 49° 97.3° 81.8° - - -
6/26 3:20pm 183 5 G 12 94° 21% - - 48° 97.3° 81.8° - - -
6/26 3:10pm 192 5 G 11 94° 21% - - 48° 97.3° 81.8° - - -
6/26 3:00pm 174 5 G 10 93° 22% - - 48° 97.3° 81.8° - - -
6/26 2:50pm 167 4 G 8 93° 22% - - 48° 97.3° 81.8° - - -
6/26 2:40pm 183 5 G 9 93° 22% - - 49° 97.3° 81.8° - - -
6/26 2:30pm 169 6 G 11 93° 21% - - 47° 97.3° 81.8° - - -
6/26 2:20pm 186 6 G 11 94° 21% - - 48° 97.3° 81.8° - - -
6/26 2:10pm 168 5 G 10 94° 19% - - 45° 97.3° 81.8° - - -
6/26 2:00pm 175 5 G 9 94° 19% - - 45° 97.3° 81.8° - - -
6/26 1:50pm 189 5 G 13 95° 19% - - 45° 97.3° 81.8° - - -
6/26 1:40pm 190 6 G 12 94° 19% - - 45° 97.3° 81.8° - - -
6/26 1:30pm 216 6 G 12 94° 18% - - 45° 97.3° 81.8° - - -
6/26 1:20pm 220 6 G 11 95° 18% - - 45° 97.3° 81.8° - - -
6/26 1:10pm 198 7 G 11 95° 17% - - 43° 97.3° 81.8° - - -
6/26 1:00pm 197 7 G 11 95° 16% - - 41° 97.3° 81.8° - - -
6/26 12:50pm 205 6 G 10 96° 16% - - 43° 97.3° 81.8° - - -
6/26 12:40pm 223 6 G 10 95° 17% - - 43° 96.8° 81.8° - - -
6/26 12:30pm 209 6 G 10 96° 16% - - 43° 96.6° 81.8° - - -
6/26 12:20pm 202 6 G 12 95° 15% - - 40° 96.6° 81.8° - - -
6/26 12:10pm 197 6 G 10 95° 15% - - 39° 96.6° 81.8° - - -
6/26 12:00pm 210 5 G 9 95° 15% - - 39° 96.6° 81.8° - - -
6/26 11:50am 212 6 G 10 94° 16% - - 41° 96.6° 81.8° - - -
6/26 11:40am 222 6 G 8 95° 15% - - 40° 96.6° 81.8° - - -
6/26 11:30am 219 6 G 10 95° 14% - - 38° 96.6° 81.8° - - -
6/26 11:20am 232 6 G 10 95° 12% - - 34° 96.6° 81.8° - - -
6/26 11:10am 218 6 G 10 96° 14% - - 38° 96.6° 81.8° - - -
6/26 11:00am 196 6 G 11 95° 14% - - 38° 95.5° 81.8° - - -
6/26 10:50am 179 4 G 8 94° 13% - - 35° 95.3° 81.8° - - -
6/26 10:40am 178 4 G 8 94° 12% - - 33° 94.6° 81.8° - - -
6/26 10:30am 179 4 G 9 93° 12% - - 33° 94.5° 81.8° - - -
6/26 10:20am 166 4 G 6 93° 12% - - 34° 94.5° 81.8° - - -
6/26 10:10am 160 4 G 8 93° 13% - - 35° 94.1° 81.8° - - -
6/26 10:00am 169 4 G 7 93° 15% - - 38° 93.7° 81.8° - - -
6/26 9:50am 157 4 G 7 93° 15% - - 38° 93.7° 81.8° - - -
6/26 9:40am 161 3 G 6 92° 15% - - 39° 93.7° 81.8° - - -
6/26 9:30am 149 3 G 5 92° 16% - - 40° 93.7° 81.8° - - -
6/26 9:20am 147 3 G 5 91° 18% - - 41° 93.7° 81.8° - - -
6/26 9:10am 159 4 G 5 92° 17% - - 41° 93.7° 81.8° - - -
6/26 9:00am 177 3 G 5 93° 16% - - 40° 93.7° 81.8° - - -
6/26 8:50am 241 1 G 3 93° 16% - - 39° 93.7° 81.8° - - -
6/26 8:40am 220 1 G 4 92° 18% - - 42° 93.7° 81.8° - - -
6/26 8:30am 230 1 G 3 92° 17% - - 41° 93.7° 81.8° - - -
6/26 8:20am 207 2 G 3 92° 16% - - 40° 93.7° 81.8° - - -
6/26 8:10am 198 2 G 3 92° 17% - - 40° 93.7° 81.8° - - -
6/26 8:00am 17 1 G 3 93° 18% - - 43° 93.7° 81.8° - - -
6/26 7:50am 318 1 G 2 92° 16% - - 40° 93.7° 81.8° - - -
6/26 7:40am 23 0 G 1 92° 18% - - 42° 93.7° 81.8° - - -
6/26 7:30am 316 2 G 2 90° 16% - - 38° 90.8° 81.8° - - -
6/26 7:20am 310 2 G 3 90° 17% - - 39° 90.5° 81.8° - - -
6/26 7:10am 316 2 G 3 90° 16% - - 38° 90.5° 81.8° - - -
6/26 7:00am 279 2 G 4 90° 15% - - 36° 90.5° 81.8° - - -
6/26 6:50am 266 1 G 3 89° 15% - - 35° 90.2° 81.8° - - -
6/26 6:40am 229 0 G 2 88° 15% - - 35° 90.2° 81.8° - - -
6/26 6:30am 178 1 G 2 89° 14% - - 34° 90.2° 81.8° - - -
6/26 6:20am 98 2 G 2 89° 14% - - 34° 89.8° 81.8° - - -
6/26 6:10am 173 2 G 3 86° 16% - - 35° 89.8° 81.8° - - -
6/26 6:00am 213 2 G 2 86° 17% - - 36° 89.8° 81.8° - - -